Time;durP1;ratioP1;P1;durP2;ratioP2;P2;SDS_P1;SDS_P2;PMS_P1;PMS_P2;Temp;Humidity;BMP_temperature;BMP_pressure;BME280_temperature;BME280_humidity;BME280_pressure;Samples;Min_cycle;Max_cycle;Signal;HPM_P1;HPM_P2
2021/07/20 00:00:41;;;;;;;16.50;4.63;;;24.00;86.10;;;;;;5030406;28;20037;-84
2021/07/20 00:03:10;;;;;;;13.95;4.22;;;23.90;85.70;;;;;;5030236;28;20025;-85
2021/07/20 00:05:39;;;;;;;12.10;4.32;;;23.90;86.80;;;;;;5030482;28;20033;-85
2021/07/20 00:08:05;;;;;;;14.55;4.63;;;23.90;86.00;;;;;;5030138;28;20052;-85
2021/07/20 00:10:37;;;;;;;15.70;4.40;;;23.90;87.00;;;;;;5028898;28;20099;-85
2021/07/20 00:13:04;;;;;;;11.05;4.28;;;23.90;86.70;;;;;;5030007;28;20021;-84
2021/07/20 00:15:30;;;;;;;12.18;4.60;;;23.80;87.50;;;;;;5030087;28;20136;-86
2021/07/20 00:17:58;;;;;;;15.60;4.53;;;23.80;87.80;;;;;;5030275;28;20379;-85
2021/07/20 00:20:26;;;;;;;15.23;4.68;;;23.80;87.30;;;;;;5029922;28;20183;-85
2021/07/20 00:22:52;;;;;;;10.27;4.30;;;23.90;87.40;;;;;;5030224;28;20024;-84
2021/07/20 00:25:18;;;;;;;12.07;4.53;;;23.90;87.20;;;;;;5030060;28;20083;-84
2021/07/20 00:27:44;;;;;;;13.43;4.90;;;23.80;87.50;;;;;;5028568;28;20505;-84
2021/07/20 00:30:12;;;;;;;11.93;5.00;;;23.70;87.80;;;;;;5029819;28;20148;-85
2021/07/20 00:32:39;;;;;;;13.55;4.57;;;23.70;88.40;;;;;;5029770;28;20029;-85
2021/07/20 00:35:07;;;;;;;10.90;4.50;;;23.60;88.90;;;;;;5030191;28;20104;-86
2021/07/20 00:37:33;;;;;;;10.65;4.78;;;23.60;89.10;;;;;;5028383;28;20018;-84
2021/07/20 00:39:58;;;;;;;11.23;4.80;;;23.60;88.90;;;;;;5029921;28;20619;-85
2021/07/20 00:42:24;;;;;;;12.57;4.93;;;23.50;89.40;;;;;;5029601;28;20493;-85
2021/07/20 00:44:50;;;;;;;14.90;4.88;;;23.50;89.80;;;;;;5029661;28;20108;-85
2021/07/20 00:47:17;;;;;;;12.18;4.05;;;23.60;89.60;;;;;;5028599;28;20389;-84
2021/07/20 00:49:43;;;;;;;9.25;4.82;;;23.50;88.90;;;;;;5028092;28;20042;-85
2021/07/20 00:52:09;;;;;;;10.73;4.43;;;23.50;89.30;;;;;;5029837;28;20021;-85
2021/07/20 00:54:36;;;;;;;10.75;4.85;;;23.50;90.20;;;;;;5029747;28;20405;-85
2021/07/20 00:57:02;;;;;;;15.23;4.68;;;23.50;90.00;;;;;;5029756;28;20037;-84
2021/07/20 00:59:28;;;;;;;13.90;4.38;;;23.50;90.40;;;;;;5029513;28;20688;-85
2021/07/20 01:01:53;;;;;;;13.15;4.70;;;23.50;90.00;;;;;;5029864;28;20036;-85
2021/07/20 01:04:19;;;;;;;11.85;4.97;;;23.50;90.10;;;;;;5029724;28;20068;-84
2021/07/20 01:06:48;;;;;;;16.48;5.70;;;23.50;90.00;;;;;;5029425;28;20383;-85
2021/07/20 01:09:14;;;;;;;11.38;4.90;;;23.40;90.30;;;;;;5029669;28;20033;-85
2021/07/20 01:11:40;;;;;;;10.65;4.50;;;23.50;90.50;;;;;;5029561;28;20029;-84
2021/07/20 01:14:06;;;;;;;10.48;4.28;;;23.40;90.70;;;;;;5028259;28;20478;-84
2021/07/20 01:16:34;;;;;;;9.20;3.97;;;23.40;90.70;;;;;;5029474;28;20036;-85
2021/07/20 01:19:04;;;;;;;15.18;4.95;;;23.30;90.70;;;;;;5029477;28;20108;-84
2021/07/20 01:21:36;;;;;;;12.27;4.45;;;23.30;91.00;;;;;;5028182;28;20028;-85
2021/07/20 01:24:13;;;;;;;13.15;4.95;;;23.20;91.30;;;;;;5029373;28;20502;-84
2021/07/20 01:26:39;;;;;;;12.90;4.40;;;23.10;91.00;;;;;;5029452;28;20254;-85
2021/07/20 01:29:06;;;;;;;11.30;4.82;;;23.10;91.20;;;;;;5029257;28;20049;-86
2021/07/20 01:31:35;;;;;;;11.02;4.68;;;23.10;91.50;;;;;;5029580;28;20532;-85
2021/07/20 01:34:01;;;;;;;11.30;5.38;;;23.10;91.60;;;;;;5029342;28;20650;-84
2021/07/20 01:36:29;;;;;;;11.32;4.00;;;23.10;92.10;;;;;;5028099;28;20490;-84
2021/07/20 01:38:57;;;;;;;12.70;4.60;;;23.10;92.10;;;;;;5029119;28;20061;-84
2021/07/20 01:41:24;;;;;;;15.02;4.57;;;23.10;92.00;;;;;;5029265;28;20026;-85
2021/07/20 01:43:59;;;;;;;11.50;4.78;;;23.10;92.10;;;;;;5029254;28;20717;-84
2021/07/20 01:46:27;;;;;;;7.85;4.55;;;23.00;92.30;;;;;;5029235;28;20560;-84
2021/07/20 01:48:54;;;;;;;7.43;4.35;;;23.00;92.30;;;;;;5029368;28;20024;-85
2021/07/20 01:51:23;;;;;;;12.70;4.45;;;22.90;92.70;;;;;;5029052;28;20436;-85
2021/07/20 01:53:50;;;;;;;13.48;5.35;;;22.90;92.60;;;;;;5031619;28;20021;-85
2021/07/20 01:56:17;;;;;;;12.95;4.28;;;22.90;92.80;;;;;;5032560;28;20036;-84
2021/07/20 01:58:43;;;;;;;15.18;5.07;;;22.90;92.80;;;;;;5032705;28;20096;-86
2021/07/20 02:01:19;;;;;;;9.23;4.18;;;22.90;92.60;;;;;;5032488;28;20104;-85
2021/07/20 02:04:11;;;;;;;8.98;4.25;;;22.80;93.30;;;;;;5032643;28;20028;-84
2021/07/20 02:09:28;;;;;;;9.02;4.68;;;22.80;93.20;;;;;;5032469;28;20504;-84
2021/07/20 02:11:54;;;;;;;11.27;4.68;;;22.70;93.60;;;;;;5032532;28;20033;-84
2021/07/20 02:14:25;;;;;;;13.07;4.78;;;22.70;94.00;;;;;;5032296;28;20470;-85
2021/07/20 02:16:53;;;;;;;12.77;4.82;;;22.70;93.60;;;;;;5032270;28;20554;-84
2021/07/20 02:19:41;;;;;;;7.97;4.30;;;22.70;93.60;;;;;;5030892;28;20104;-85
2021/07/20 02:22:08;;;;;;;9.70;4.25;;;22.60;94.10;;;;;;5030506;28;20751;-84
2021/07/20 02:24:36;;;;;;;9.55;4.45;;;22.60;94.40;;;;;;5032393;28;20025;-86
2021/07/20 02:27:05;;;;;;;11.75;4.40;;;22.60;94.30;;;;;;5032242;28;20070;-85
2021/07/20 02:29:32;;;;;;;9.20;4.55;;;22.50;94.50;;;;;;5032066;28;20111;-84
2021/07/20 02:32:02;;;;;;;11.20;4.97;;;22.50;94.40;;;;;;5032415;28;20022;-85
2021/07/20 02:34:29;;;;;;;14.18;4.05;;;22.50;94.50;;;;;;5031798;28;20033;-84
2021/07/20 02:36:57;;;;;;;11.07;4.30;;;22.50;95.00;;;;;;5031948;28;20100;-84
2021/07/20 02:39:24;;;;;;;8.95;4.22;;;22.50;94.80;;;;;;5031675;28;20053;-84
2021/07/20 02:41:54;;;;;;;12.77;4.93;;;22.40;95.30;;;;;;5032137;28;20021;-84
2021/07/20 02:44:20;;;;;;;7.68;3.67;;;22.40;95.60;;;;;;5030268;28;20030;-84
2021/07/20 02:46:46;;;;;;;13.02;4.15;;;22.40;95.70;;;;;;5030632;28;20025;-84
2021/07/20 02:49:14;;;;;;;12.50;4.72;;;22.30;96.00;;;;;;5031708;28;20040;-84
2021/07/20 02:51:43;;;;;;;11.60;4.43;;;22.30;95.90;;;;;;5031840;28;20026;-84
2021/07/20 02:54:09;;;;;;;12.10;4.75;;;22.30;95.90;;;;;;5031671;28;20045;-84
2021/07/20 02:56:36;;;;;;;10.90;4.53;;;22.40;96.20;;;;;;5031564;28;20618;-84
2021/07/20 02:59:06;;;;;;;18.70;4.75;;;22.30;96.10;;;;;;5030338;28;20053;-84
2021/07/20 03:01:38;;;;;;;10.57;4.85;;;22.30;96.10;;;;;;5031317;28;20113;-84
2021/07/20 03:04:05;;;;;;;9.95;4.15;;;22.30;96.20;;;;;;5031434;28;20028;-84
2021/07/20 03:06:32;;;;;;;9.52;4.65;;;22.20;96.60;;;;;;5031279;28;20029;-84
2021/07/20 03:08:59;;;;;;;10.82;3.90;;;22.20;96.40;;;;;;5031411;28;20371;-84
2021/07/20 03:11:35;;;;;;;6.72;4.07;;;22.20;96.60;;;;;;5031140;28;20429;-84
2021/07/20 03:14:08;;;;;;;9.77;4.07;;;22.20;96.80;;;;;;5031343;28;20163;-83
2021/07/20 03:16:37;;;;;;;11.23;4.78;;;22.10;96.80;;;;;;5031135;28;20021;-83
2021/07/20 03:19:06;;;;;;;7.80;4.28;;;22.00;97.10;;;;;;5031054;28;20013;-84
2021/07/20 03:21:33;;;;;;;13.07;4.88;;;21.90;97.70;;;;;;5031256;28;20021;-84
2021/07/20 03:24:02;;;;;;;10.10;4.03;;;21.90;97.50;;;;;;5031033;28;20425;-84
2021/07/20 03:26:28;;;;;;;8.93;4.68;;;22.00;97.30;;;;;;5031042;28;20017;-84
2021/07/20 03:28:55;;;;;;;11.70;4.55;;;21.90;97.70;;;;;;5029546;28;20022;-84
2021/07/20 03:31:21;;;;;;;14.20;4.88;;;21.90;97.80;;;;;;5030700;28;20136;-83
2021/07/20 03:33:48;;;;;;;8.35;4.10;;;21.90;97.80;;;;;;5030999;28;20224;-84
2021/07/20 03:36:14;;;;;;;9.00;4.07;;;21.90;97.80;;;;;;5030587;28;20552;-84
2021/07/20 03:38:41;;;;;;;10.70;4.32;;;21.90;98.20;;;;;;5030735;28;20053;-85
2021/07/20 03:41:08;;;;;;;11.23;4.15;;;21.90;97.90;;;;;;5030671;28;20168;-83
2021/07/20 03:43:35;;;;;;;13.63;4.97;;;21.90;98.30;;;;;;5030802;28;20429;-84
2021/07/20 03:46:01;;;;;;;14.57;4.80;;;21.90;98.50;;;;;;5030483;28;20036;-83
2021/07/20 03:48:32;;;;;;;10.55;4.45;;;21.80;98.50;;;;;;5030559;28;20478;-84
2021/07/20 03:50:59;;;;;;;11.98;4.38;;;21.80;98.50;;;;;;5030662;28;20079;-85
2021/07/20 03:53:28;;;;;;;9.15;4.03;;;21.70;99.10;;;;;;5030692;28;20025;-83
2021/07/20 03:55:59;;;;;;;13.65;4.70;;;21.60;99.30;;;;;;5030673;28;20385;-84
2021/07/20 03:58:26;;;;;;;8.32;4.22;;;21.60;99.30;;;;;;5029086;28;20053;-84
2021/07/20 04:00:55;;;;;;;12.80;4.43;;;21.60;99.50;;;;;;5030444;28;20151;-84
2021/07/20 04:03:25;;;;;;;9.27;4.38;;;21.50;99.50;;;;;;5030184;28;20018;-84
2021/07/20 04:06:06;;;;;;;7.45;4.28;;;21.60;99.70;;;;;;5030465;28;20037;-83
2021/07/20 04:08:36;;;;;;;12.18;4.47;;;21.60;99.60;;;;;;5030172;28;20075;-83
2021/07/20 04:11:03;;;;;;;12.32;4.40;;;21.60;99.80;;;;;;5030314;28;20041;-84
2021/07/20 04:13:30;;;;;;;9.57;4.18;;;21.50;99.80;;;;;;5030270;28;20009;-83
2021/07/20 04:16:05;;;;;;;10.60;4.15;;;21.40;99.90;;;;;;5029645;28;20029;-84
2021/07/20 04:18:34;;;;;;;8.18;4.10;;;21.50;99.90;;;;;;5030304;28;20021;-84
2021/07/20 04:21:03;;;;;;;11.48;5.15;;;21.50;99.90;;;;;;5030217;28;20018;-85
2021/07/20 04:23:29;;;;;;;8.25;4.18;;;21.40;99.90;;;;;;5030056;28;20021;-84
2021/07/20 04:25:55;;;;;;;12.85;4.50;;;21.40;99.90;;;;;;5029980;28;20017;-85
2021/07/20 04:28:23;;;;;;;11.88;4.20;;;21.40;99.90;;;;;;5030011;28;20025;-84
2021/07/20 04:30:50;;;;;;;7.18;4.20;;;21.40;99.90;;;;;;5029829;28;20037;-84
2021/07/20 04:33:24;;;;;;;7.57;4.10;;;21.30;99.90;;;;;;5028667;28;20029;-83
2021/07/20 04:35:54;;;;;;;7.00;4.18;;;21.30;99.90;;;;;;5029810;28;20505;-83
2021/07/20 04:38:21;;;;;;;10.32;4.05;;;21.30;99.90;;;;;;5029619;28;20014;-84
2021/07/20 04:40:48;;;;;;;11.38;4.45;;;21.30;99.90;;;;;;5029767;28;20520;-84
2021/07/20 04:43:14;;;;;;;12.40;4.65;;;21.20;99.90;;;;;;5028476;28;20385;-84
2021/07/20 04:45:42;;;;;;;7.75;3.80;;;21.30;99.90;;;;;;5029757;28;20512;-84
2021/07/20 04:48:09;;;;;;;8.35;4.68;;;21.20;99.90;;;;;;5029780;28;20120;-84
2021/07/20 04:50:35;;;;;;;9.85;4.32;;;21.30;99.90;;;;;;5029811;28;20402;-84
2021/07/20 04:53:03;;;;;;;15.65;4.43;;;21.20;99.90;;;;;;5029956;28;20478;-85
2021/07/20 04:55:34;;;;;;;10.25;4.35;;;21.20;99.90;;;;;;5029731;28;20100;-83
2021/07/20 04:58:01;;;;;;;10.18;4.60;;;21.20;99.90;;;;;;5029626;28;20029;-83
2021/07/20 05:00:27;;;;;;;7.65;4.10;;;21.30;99.90;;;;;;5029601;28;20014;-85
2021/07/20 05:03:00;;;;;;;12.38;4.80;;;21.30;99.90;;;;;;5029612;28;20104;-85
2021/07/20 05:05:27;;;;;;;10.45;4.72;;;21.20;99.90;;;;;;5029866;28;20096;-84
2021/07/20 05:07:54;;;;;;;11.05;4.43;;;21.20;99.90;;;;;;5029772;28;20087;-84
2021/07/20 05:10:21;;;;;;;9.73;4.70;;;21.20;99.90;;;;;;5029434;28;20075;-84
2021/07/20 05:12:48;;;;;;;15.25;5.05;;;21.30;99.90;;;;;;5029909;28;20057;-88
2021/07/20 05:15:16;;;;;;;7.10;4.35;;;21.30;99.90;;;;;;5029406;28;20021;-86
2021/07/20 05:17:42;;;;;;;8.63;4.38;;;21.30;99.90;;;;;;5028305;28;20037;-88
2021/07/20 05:20:10;;;;;;;10.00;4.38;;;21.40;99.90;;;;;;5030473;28;20018;-88
2021/07/20 05:22:36;;;;;;;10.77;4.50;;;21.50;99.90;;;;;;5032081;28;20028;-87
2021/07/20 05:25:04;;;;;;;10.15;4.55;;;21.50;99.90;;;;;;5029622;28;20037;-91
2021/07/20 05:27:42;;;;;;;7.82;4.00;;;21.50;99.90;;;;;;5029906;28;20036;-88
2021/07/20 05:30:09;;;;;;;10.93;4.63;;;21.50;99.90;;;;;;5034872;28;20048;-88
2021/07/20 05:32:40;;;;;;;11.95;4.72;;;21.60;99.90;;;;;;5034446;28;20013;-90
2021/07/20 05:35:10;;;;;;;22.17;4.90;;;21.60;99.90;;;;;;5033321;28;20025;-87
2021/07/20 05:37:37;;;;;;;12.88;5.50;;;21.50;99.90;;;;;;5034331;28;20017;-87
2021/07/20 05:40:05;;;;;;;9.63;4.38;;;21.50;99.90;;;;;;5034002;28;20049;-91
2021/07/20 05:42:32;;;;;;;13.45;4.55;;;21.50;99.90;;;;;;5033880;28;20018;-89
2021/07/20 05:44:58;;;;;;;10.38;4.78;;;21.50;99.90;;;;;;5034063;28;20056;-92
2021/07/20 05:47:26;;;;;;;10.77;4.95;;;21.50;99.90;;;;;;5032501;28;20018;-89
2021/07/20 05:49:52;;;;;;;15.38;5.05;;;21.70;99.90;;;;;;5033734;28;20036;-89
2021/07/20 05:52:19;;;;;;;14.85;4.72;;;21.70;99.90;;;;;;5033819;28;20036;-88
2021/07/20 05:54:46;;;;;;;16.75;5.10;;;21.70;99.90;;;;;;5033865;28;20504;-89
2021/07/20 05:57:13;;;;;;;9.90;4.40;;;21.70;99.90;;;;;;5032454;28;20078;-91
2021/07/20 05:59:40;;;;;;;11.98;4.60;;;21.70;99.90;;;;;;5035745;28;20163;-88
2021/07/20 06:02:10;;;;;;;13.55;4.45;;;21.80;99.90;;;;;;5032410;28;20104;-89
2021/07/20 06:04:37;;;;;;;13.52;4.60;;;21.80;99.90;;;;;;5027223;28;20013;-90
2021/07/20 06:07:04;;;;;;;10.30;4.68;;;21.90;99.90;;;;;;5032418;28;20026;-88
2021/07/20 06:09:31;;;;;;;10.88;4.65;;;21.90;99.90;;;;;;5032048;28;20532;-87
2021/07/20 06:11:58;;;;;;;17.88;5.13;;;21.90;99.90;;;;;;5032267;28;20028;-89
2021/07/20 06:14:24;;;;;;;10.80;4.78;;;21.80;99.90;;;;;;5032032;28;20029;-88
2021/07/20 06:16:50;;;;;;;8.32;4.07;;;21.90;99.90;;;;;;5032410;28;20014;-87
2021/07/20 06:19:16;;;;;;;11.63;4.50;;;21.90;99.90;;;;;;5032058;28;20028;-87
2021/07/20 06:21:44;;;;;;;12.75;4.60;;;22.00;99.90;;;;;;5032337;28;20022;-88
2021/07/20 06:24:11;;;;;;;10.23;4.68;;;22.10;99.90;;;;;;5032079;28;20080;-88
2021/07/20 06:26:38;;;;;;;10.27;4.10;;;22.20;99.90;;;;;;5030752;28;20033;-88
2021/07/20 06:29:09;;;;;;;11.75;4.80;;;22.20;99.90;;;;;;5030442;28;20025;-89
2021/07/20 06:31:44;;;;;;;8.25;4.00;;;22.30;99.90;;;;;;5031833;28;20048;-88
2021/07/20 06:34:13;;;;;;;10.43;4.50;;;22.30;99.70;;;;;;5031839;28;20021;-89
2021/07/20 06:36:42;;;;;;;9.27;4.43;;;22.40;99.70;;;;;;5030445;28;20036;-87
2021/07/20 06:39:08;;;;;;;13.88;4.47;;;22.50;99.60;;;;;;5029743;28;20124;-89
2021/07/20 06:41:36;;;;;;;12.25;4.38;;;22.50;99.70;;;;;;5030894;28;20385;-89
2021/07/20 06:44:05;;;;;;;8.50;4.30;;;22.60;99.60;;;;;;5030473;28;20083;-88
2021/07/20 06:46:32;;;;;;;10.20;3.95;;;22.80;99.20;;;;;;5031438;28;20068;-89
2021/07/20 06:48:59;;;;;;;10.38;4.03;;;22.90;98.80;;;;;;5030226;28;20021;-88
2021/07/20 06:51:29;;;;;;;13.07;4.30;;;22.90;98.50;;;;;;5031594;28;20017;-88
2021/07/20 06:53:55;;;;;;;10.48;4.43;;;23.00;98.10;;;;;;5030283;28;20078;-89
2021/07/20 06:56:26;;;;;;;10.55;4.25;;;23.10;97.70;;;;;;5031558;28;20018;-87
2021/07/20 06:58:53;;;;;;;8.30;4.15;;;23.20;97.50;;;;;;5030177;28;20497;-86
2021/07/20 07:01:21;;;;;;;8.38;3.90;;;23.20;97.40;;;;;;5029947;28;20082;-86
2021/07/20 07:03:53;;;;;;;12.18;4.03;;;23.30;97.50;;;;;;5031797;28;20395;-85
2021/07/20 07:06:22;;;;;;;10.48;4.38;;;23.40;97.10;;;;;;5031814;28;20025;-85
2021/07/20 07:08:49;;;;;;;8.82;4.00;;;23.40;96.90;;;;;;5030141;28;20028;-85
2021/07/20 07:11:16;;;;;;;12.40;4.18;;;23.60;96.60;;;;;;5031556;28;20156;-87
2021/07/20 07:13:42;;;;;;;8.15;3.67;;;23.70;96.20;;;;;;5031256;28;20060;-85
2021/07/20 07:16:09;;;;;;;12.55;3.85;;;23.70;96.40;;;;;;5031216;28;20664;-85
2021/07/20 07:18:37;;;;;;;11.90;4.57;;;23.80;96.20;;;;;;5031604;28;20025;-85
2021/07/20 07:21:04;;;;;;;16.33;4.13;;;23.90;96.00;;;;;;5031594;28;20018;-85
2021/07/20 07:23:31;;;;;;;9.75;4.22;;;24.00;96.10;;;;;;5031533;28;20359;-85
2021/07/20 07:25:59;;;;;;;12.70;3.60;;;24.10;95.40;;;;;;5030895;28;20927;-85
2021/07/20 07:28:27;;;;;;;10.20;3.95;;;24.10;95.30;;;;;;5031577;28;20021;-84
2021/07/20 07:30:53;;;;;;;10.85;4.03;;;24.20;94.90;;;;;;5030774;28;20025;-84
2021/07/20 07:33:20;;;;;;;11.90;4.32;;;24.20;94.50;;;;;;5031024;28;20014;-86
2021/07/20 07:35:46;;;;;;;8.80;4.13;;;24.30;94.70;;;;;;5029635;28;20448;-85
2021/07/20 07:38:14;;;;;;;13.35;4.18;;;24.40;94.80;;;;;;5030785;28;20021;-85
2021/07/20 07:40:40;;;;;;;7.88;3.75;;;24.50;94.80;;;;;;5029452;28;20029;-86
2021/07/20 07:43:07;;;;;;;10.07;4.45;;;24.50;94.40;;;;;;5030419;28;20033;-86
2021/07/20 07:45:34;;;;;;;9.98;3.78;;;24.60;94.20;;;;;;5030737;28;20021;-83
2021/07/20 07:48:01;;;;;;;9.73;3.97;;;24.70;93.90;;;;;;5030268;28;20026;-82
2021/07/20 07:50:27;;;;;;;11.48;4.47;;;24.80;93.60;;;;;;5027863;28;20252;-82
2021/07/20 07:52:55;;;;;;;14.18;4.22;;;24.80;93.50;;;;;;5030332;28;20022;-82
2021/07/20 07:55:23;;;;;;;13.10;3.97;;;25.00;93.40;;;;;;5032263;28;20033;-83
2021/07/20 07:57:49;;;;;;;11.85;3.97;;;25.10;93.40;;;;;;5029639;28;20474;-87
2021/07/20 08:00:15;;;;;;;13.98;4.38;;;25.20;92.90;;;;;;5030490;28;20152;-82
2021/07/20 08:02:48;;;;;;;12.70;4.65;;;25.20;93.10;;;;;;5031678;28;20006;-85
2021/07/20 08:05:14;;;;;;;9.60;4.43;;;25.30;93.00;;;;;;5030070;28;20486;-86
